Time;durP1;ratioP1;P1;durP2;ratioP2;P2;SDS_P1;SDS_P2;PMS_P1;PMS_P2;Temp;Humidity;BMP_temperature;BMP_pressure;BME280_temperature;BME280_humidity;BME280_pressure;Samples;Min_cycle;Max_cycle;Signal;HPM_P1;HPM_P2
2022/10/10 00:01:20;;;;;;;21.92;10.10;;;6.20;99.90;;;5.58;100.00;97273.41;6206700;23;20021;-66
2022/10/10 00:03:47;;;;;;;21.77;10.30;;;6.20;99.90;;;5.54;100.00;97273.53;6207623;23;20032;-66
2022/10/10 00:06:15;;;;;;;18.73;9.50;;;6.30;99.90;;;5.58;100.00;97270.00;6206023;23;20487;-67
2022/10/10 00:08:43;;;;;;;21.55;9.07;;;6.30;99.90;;;5.62;100.00;97271.59;6206845;23;20028;-66
2022/10/10 00:11:12;;;;;;;18.90;9.90;;;6.30;99.90;;;5.55;100.00;97270.09;6204489;23;20028;-66
2022/10/10 00:13:39;;;;;;;21.95;9.95;;;6.30;99.90;;;5.53;100.00;97277.00;6206654;23;20107;-66
2022/10/10 00:16:06;;;;;;;18.60;9.23;;;6.20;99.90;;;5.62;100.00;97269.03;6205327;23;20271;-65
2022/10/10 00:18:33;;;;;;;26.00;10.75;;;6.20;99.90;;;5.53;100.00;97271.88;6205948;23;20025;-67
2022/10/10 00:21:00;;;;;;;20.67;10.38;;;6.20;99.90;;;5.51;100.00;97281.34;6206549;23;20472;-66
2022/10/10 00:23:27;;;;;;;22.80;9.73;;;6.20;99.90;;;5.51;100.00;97274.47;6206073;23;20029;-67
2022/10/10 00:25:54;;;;;;;19.70;10.18;;;6.20;99.90;;;5.50;100.00;97277.09;6204663;23;20020;-65
2022/10/10 00:28:21;;;;;;;18.10;8.93;;;6.20;99.90;;;5.51;100.00;97271.88;6205794;23;20025;-66
2022/10/10 00:30:49;;;;;;;20.75;9.80;;;6.20;99.90;;;5.51;100.00;97266.75;6206309;23;20032;-66
2022/10/10 00:33:16;;;;;;;18.33;9.20;;;6.20;99.90;;;5.50;100.00;97269.38;6203068;23;20024;-67
2022/10/10 00:35:42;;;;;;;17.20;9.50;;;6.10;99.90;;;5.41;100.00;97270.47;6204095;23;20071;-67
2022/10/10 00:38:10;;;;;;;19.67;8.43;;;6.10;99.90;;;5.34;100.00;97272.34;6204429;23;20348;-67
2022/10/10 00:40:50;;;;;;;18.05;8.65;;;6.10;99.90;;;5.41;100.00;97270.47;6204982;23;20459;-66
2022/10/10 00:43:17;;;;;;;18.35;8.93;;;6.10;99.90;;;5.39;100.00;97275.66;6207177;23;20031;-67
2022/10/10 00:45:46;;;;;;;16.58;8.15;;;6.00;99.90;;;5.38;100.00;97267.97;6205566;23;20047;-65
2022/10/10 00:48:19;;;;;;;16.95;8.43;;;6.00;99.90;;;5.32;100.00;97265.56;6205187;23;20074;-66
2022/10/10 00:51:01;;;;;;;18.88;9.48;;;6.10;99.90;;;5.32;100.00;97268.13;6205569;23;20025;-66
2022/10/10 00:53:37;;;;;;;19.38;8.38;;;6.00;99.90;;;5.33;100.00;97269.81;6205422;23;20051;-67
2022/10/10 00:56:05;;;;;;;16.77;8.70;;;6.00;99.90;;;5.29;100.00;97266.50;6206102;23;20477;-67
2022/10/10 00:58:33;;;;;;;20.30;9.35;;;6.00;99.90;;;5.30;100.00;97260.44;6206587;23;20025;-67
2022/10/10 01:01:00;;;;;;;16.52;8.32;;;6.00;99.90;;;5.32;100.00;97266.41;6205903;23;20021;-67
2022/10/10 01:03:27;;;;;;;16.77;8.18;;;6.00;99.90;;;5.35;100.00;97271.47;6205712;23;20111;-66
2022/10/10 01:05:54;;;;;;;17.23;8.98;;;6.00;99.90;;;5.30;100.00;97260.44;6205702;23;20025;-66
2022/10/10 01:08:21;;;;;;;15.85;8.38;;;6.00;99.90;;;5.23;100.00;97266.66;6206804;23;20025;-66
2022/10/10 01:11:16;;;;;;;18.77;10.30;;;6.00;99.90;;;5.18;100.00;97259.06;6206461;23;20368;-66
2022/10/10 01:14:23;;;;;;;18.27;9.70;;;5.90;99.90;;;5.13;100.00;97263.47;6206184;23;20558;-66
2022/10/10 01:17:24;;;;;;;17.77;8.80;;;5.90;99.90;;;5.14;100.00;97262.59;6170985;23;20480;-66
2022/10/10 01:20:26;;;;;;;16.45;9.05;;;5.90;99.90;;;5.17;100.00;97266.78;6205481;23;20047;-66
2022/10/10 01:23:05;;;;;;;15.77;9.02;;;5.80;99.90;;;5.20;100.00;97262.44;6205885;23;20027;-68
2022/10/10 01:25:56;;;;;;;14.30;8.10;;;5.90;99.90;;;5.21;100.00;97256.38;6206177;23;20031;-66
2022/10/10 01:28:46;;;;;;;18.88;8.82;;;5.90;99.90;;;5.13;100.00;97254.91;6206295;23;20419;-65
2022/10/10 01:31:16;;;;;;;16.50;7.70;;;5.90;99.90;;;5.13;100.00;97260.91;6205599;23;20047;-65
2022/10/10 01:34:21;;;;;;;19.63;9.05;;;5.80;99.90;;;5.06;100.00;97256.78;6204886;23;20624;-66
2022/10/10 01:37:05;;;;;;;16.92;8.70;;;5.80;99.90;;;4.98;100.00;97251.84;6230465;23;20024;-65
2022/10/10 01:40:10;;;;;;;18.17;8.88;;;5.80;99.90;;;5.06;100.00;97245.66;6202022;23;20472;-66
2022/10/10 01:42:57;;;;;;;16.45;8.05;;;5.70;99.90;;;5.08;100.00;97242.16;6203314;23;20114;-65
2022/10/10 01:45:27;;;;;;;19.25;9.45;;;5.70;99.90;;;4.97;100.00;97244.16;6214772;23;20017;-65
2022/10/10 01:48:00;;;;;;;21.15;9.27;;;5.70;99.90;;;4.84;100.00;97243.63;6205448;23;20024;-66
2022/10/10 01:50:29;;;;;;;14.98;8.15;;;5.60;99.90;;;5.02;100.00;97240.59;6205641;23;20032;-66
2022/10/10 01:53:14;;;;;;;19.10;8.50;;;5.70;99.90;;;4.99;100.00;97232.94;6206771;23;20092;-66
2022/10/10 01:55:51;;;;;;;16.83;8.65;;;5.70;99.90;;;4.96;100.00;97239.91;6205306;23;20017;-66
2022/10/10 01:58:46;;;;;;;13.82;7.85;;;5.60;99.90;;;4.99;100.00;97239.81;6206991;23;20390;-66
2022/10/10 02:02:06;;;;;;;19.15;8.30;;;5.60;99.90;;;4.88;100.00;97240.13;6205555;23;20020;-66
2022/10/10 02:04:52;;;;;;;19.25;7.82;;;5.70;99.90;;;4.74;100.00;97248.16;6193924;23;20041;-68
2022/10/10 02:07:23;;;;;;;20.13;9.02;;;5.60;99.90;;;4.48;100.00;97240.25;6205241;23;20021;-68
2022/10/10 02:09:51;;;;;;;15.98;9.13;;;5.60;99.90;;;4.45;100.00;97243.72;6208130;23;20463;-66
2022/10/10 02:12:20;;;;;;;12.48;6.85;;;5.60;99.90;;;4.64;100.00;97233.00;6205299;23;20400;-65
2022/10/10 02:14:53;;;;;;;13.00;7.38;;;5.60;99.90;;;4.90;100.00;97227.19;6206417;23;20036;-65
2022/10/10 02:17:20;;;;;;;;;;;5.60;99.90;;;4.85;100.00;97229.03;6205927;23;20111;-67
2022/10/10 02:19:53;;;;;;;22.20;9.38;;;5.70;99.90;;;4.60;100.00;97227.91;6205498;23;20328;-66
2022/10/10 02:22:22;;;;;;;16.83;8.50;;;5.60;99.90;;;4.52;100.00;97219.56;6208242;23;20024;-67
2022/10/10 02:24:51;;;;;;;11.77;7.72;;;5.60;99.90;;;4.41;100.00;97208.69;6205748;23;20024;-66
2022/10/10 02:27:49;;;;;;;16.08;8.65;;;5.50;99.90;;;4.44;100.00;97195.75;6205365;23;20017;-66
2022/10/10 02:30:17;;;;;;;22.45;11.73;;;5.50;99.90;;;4.51;100.00;97193.88;6206485;23;20028;-67
2022/10/10 02:32:56;;;;;;;16.05;9.68;;;5.50;99.90;;;4.46;100.00;97193.16;6205590;23;20457;-66
2022/10/10 02:35:30;;;;;;;12.75;8.02;;;5.50;99.90;;;4.48;100.00;97191.41;6207092;23;20027;-66
2022/10/10 02:37:59;;;;;;;15.25;8.25;;;5.50;99.90;;;4.39;100.00;97188.16;6205751;23;20028;-66
2022/10/10 02:40:30;;;;;;;15.68;8.73;;;5.60;99.90;;;4.54;100.00;97181.81;6204590;23;20030;-66
2022/10/10 02:43:02;;;;;;;16.42;8.88;;;5.60;99.90;;;4.68;100.00;97160.06;6206220;23;20025;-66
2022/10/10 02:45:32;;;;;;;14.23;7.85;;;5.50;99.90;;;4.71;100.00;97149.69;6204497;23;20024;-66
2022/10/10 02:48:03;;;;;;;17.67;7.65;;;5.60;99.90;;;4.78;100.00;97157.19;6206520;23;20520;-68
2022/10/10 02:50:30;;;;;;;12.68;6.78;;;5.60;99.90;;;4.85;100.00;97154.47;6181601;23;20024;-66
2022/10/10 02:52:57;;;;;;;13.40;6.57;;;5.60;99.90;;;4.94;100.00;97159.38;6207959;23;20533;-66
2022/10/10 02:55:25;;;;;;;11.25;5.82;;;5.70;99.90;;;4.87;100.00;97165.56;6207645;23;20396;-66
2022/10/10 02:57:52;;;;;;;12.95;6.07;;;5.60;99.90;;;4.87;100.00;97174.13;6205870;23;20028;-66
2022/10/10 03:00:20;;;;;;;8.48;5.22;;;5.60;99.90;;;4.93;100.00;97167.97;6206260;23;20047;-67
2022/10/10 03:02:46;;;;;;;10.68;6.63;;;5.60;99.90;;;4.90;100.00;97175.75;6207529;23;20036;-66
2022/10/10 03:05:14;;;;;;;15.48;7.03;;;5.60;99.90;;;4.77;100.00;97170.94;6207042;23;20112;-65
2022/10/10 03:07:40;;;;;;;11.75;6.35;;;5.50;99.90;;;4.79;100.00;97170.91;6206449;23;20447;-67
2022/10/10 03:10:08;;;;;;;17.20;8.63;;;5.50;99.90;;;4.36;100.00;97187.41;6206573;23;20032;-67
2022/10/10 03:12:35;;;;;;;17.80;9.93;;;5.50;99.90;;;4.22;100.00;97176.59;6205875;23;20574;-66
2022/10/10 03:15:04;;;;;;;18.63;9.50;;;5.40;99.90;;;4.02;100.00;97188.19;6206064;23;20032;-65
2022/10/10 03:17:37;;;;;;;14.55;8.90;;;5.30;99.90;;;4.03;100.00;97187.31;6206935;23;20100;-66
2022/10/10 03:20:04;;;;;;;15.18;9.40;;;5.30;99.90;;;3.99;100.00;97177.97;6206973;23;20035;-66
2022/10/10 03:22:31;;;;;;;14.13;8.30;;;5.20;99.90;;;4.00;100.00;97169.41;6207085;23;20051;-66
2022/10/10 03:24:58;;;;;;;17.48;9.18;;;5.20;99.90;;;3.86;100.00;97164.59;6206756;23;20472;-66
2022/10/10 03:27:26;;;;;;;15.95;9.45;;;5.20;99.90;;;3.83;100.00;97164.66;6206405;23;20040;-66
2022/10/10 03:29:53;;;;;;;18.10;8.93;;;5.20;99.90;;;3.81;100.00;97160.41;6206289;23;20040;-67
2022/10/10 03:32:20;;;;;;;13.52;9.13;;;5.20;99.90;;;3.80;100.00;97149.31;6206352;23;20396;-66
2022/10/10 03:34:47;;;;;;;21.02;11.25;;;5.20;99.90;;;3.82;100.00;97150.13;6207105;23;20290;-67
2022/10/10 03:37:14;;;;;;;23.73;12.30;;;5.20;99.90;;;3.80;100.00;97138.22;6207289;23;20697;-67
2022/10/10 03:39:41;;;;;;;22.92;13.52;;;5.20;99.90;;;3.81;100.00;97143.31;6206549;23;20344;-66
2022/10/10 03:42:07;;;;;;;26.70;14.95;;;5.20;99.90;;;3.82;100.00;97137.28;6205764;23;20025;-66
2022/10/10 03:44:36;;;;;;;32.70;16.58;;;5.20;99.90;;;3.83;100.00;97084.22;6206570;23;20104;-66
2022/10/10 03:47:03;;;;;;;27.35;13.90;;;5.20;99.90;;;3.86;100.00;97081.59;6204955;23;20028;-66
2022/10/10 03:49:30;;;;;;;23.35;11.63;;;;;;;3.88;100.00;97052.44;6207414;23;20024;-65
2022/10/10 03:51:59;;;;;;;19.33;10.35;;;5.20;99.90;;;3.78;100.00;97054.34;6207054;23;20032;-66
2022/10/10 03:54:26;;;;;;;19.13;10.85;;;5.20;99.90;;;3.81;100.00;97045.75;6230087;23;20032;-67
2022/10/10 03:56:53;;;;;;;30.77;16.02;;;5.10;99.90;;;3.91;100.00;97039.50;6204201;23;20044;-66
2022/10/10 03:59:20;;;;;;;31.98;16.58;;;5.10;99.90;;;3.87;100.00;97040.47;6207079;23;20028;-65
2022/10/10 04:01:47;;;;;;;32.50;17.65;;;5.10;99.90;;;3.85;100.00;97039.66;6205580;23;20324;-66
2022/10/10 04:04:14;;;;;;;26.60;14.35;;;5.20;99.90;;;3.84;100.00;97044.84;6205746;23;20720;-67
2022/10/10 04:06:41;;;;;;;26.45;15.25;;;5.20;99.90;;;3.87;100.00;97047.31;6206689;23;20020;-66
2022/10/10 04:09:07;;;;;;;27.48;16.40;;;5.20;99.90;;;3.90;100.00;97040.41;6206196;23;20059;-67
2022/10/10 04:11:35;;;;;;;30.70;15.75;;;5.10;99.90;;;3.99;100.00;97034.16;6206481;23;20025;-66
2022/10/10 04:14:02;;;;;;;35.55;18.88;;;5.20;99.90;;;4.03;100.00;97028.09;6205643;23;20020;-67
2022/10/10 04:16:29;;;;;;;23.92;14.65;;;5.10;99.90;;;3.85;100.00;97042.22;6205306;23;20487;-66
2022/10/10 04:18:56;;;;;;;23.02;13.07;;;5.10;99.90;;;3.84;100.00;97043.09;6206218;23;20032;-67
2022/10/10 04:21:23;;;;;;;30.35;14.73;;;5.10;99.90;;;3.83;100.00;97045.72;6206017;23;20025;-66
2022/10/10 04:23:50;;;;;;;21.55;11.70;;;5.20;99.90;;;3.90;100.00;97036.97;6206405;23;20631;-66
2022/10/10 04:26:17;;;;;;;20.27;11.73;;;5.20;99.90;;;4.00;100.00;97038.44;6206512;23;20078;-67
2022/10/10 04:28:44;;;;;;;28.48;14.50;;;5.10;99.90;;;4.09;100.00;97037.38;6205673;23;20456;-66
2022/10/10 04:31:11;;;;;;;31.48;15.98;;;5.10;99.90;;;4.11;100.00;97027.91;6206059;23;20028;-65
2022/10/10 04:33:38;;;;;;;32.60;17.33;;;5.20;99.90;;;4.17;100.00;97030.28;6205775;23;20020;-67
2022/10/10 04:36:05;;;;;;;29.92;15.32;;;5.20;99.90;;;4.11;100.00;97025.34;6206873;23;20029;-65
2022/10/10 04:38:32;;;;;;;35.25;18.58;;;5.30;99.90;;;4.16;100.00;97026.06;6206316;23;20028;-65
2022/10/10 04:40:59;;;;;;;33.13;17.38;;;5.30;99.90;;;4.20;100.00;97019.97;6204476;23;20029;-66
2022/10/10 04:43:26;;;;;;;34.67;17.80;;;5.40;99.90;;;4.11;100.00;97027.91;6205281;23;20409;-66
2022/10/10 04:45:57;;;;;;;28.30;16.05;;;5.40;99.90;;;4.23;100.00;97031.88;6202953;23;20021;-67
2022/10/10 04:48:24;;;;;;;25.95;12.43;;;5.50;99.90;;;4.32;100.00;97029.06;6203326;23;20365;-65
2022/10/10 04:50:53;;;;;;;16.95;9.77;;;5.60;99.90;;;4.51;100.00;97012.25;6205349;23;20069;-66
2022/10/10 04:53:20;;;;;;;17.85;7.75;;;5.70;99.90;;;4.75;100.00;97012.47;6216320;23;20024;-65
2022/10/10 04:55:47;;;;;;;14.25;7.45;;;5.80;99.90;;;4.72;100.00;97021.13;6205681;23;20028;-66
2022/10/10 04:58:14;;;;;;;13.15;6.60;;;5.90;99.90;;;4.97;100.00;97008.41;6204064;23;20055;-67
2022/10/10 05:00:41;;;;;;;17.48;7.65;;;6.00;99.90;;;4.77;100.00;97023.56;6204295;23;20031;-67
2022/10/10 05:03:11;;;;;;;27.10;12.55;;;6.10;99.90;;;4.63;100.00;97018.81;6203819;23;20499;-67
2022/10/10 05:05:39;;;;;;;25.67;12.82;;;6.20;99.90;;;4.74;100.00;97011.59;6204326;23;20075;-65
2022/10/10 05:08:06;;;;;;;21.08;10.73;;;6.20;99.90;;;4.66;100.00;97015.31;6204382;23;20024;-66
2022/10/10 05:10:38;;;;;;;20.27;9.90;;;6.20;99.90;;;4.64;100.00;97020.47;6206376;23;20023;-67
2022/10/10 05:13:07;;;;;;;11.95;7.45;;;6.10;99.90;;;4.88;100.00;97021.53;6206603;23;20017;-66
2022/10/10 05:15:34;;;;;;;12.00;7.82;;;6.10;99.90;;;4.99;100.00;97019.44;6204122;23;20042;-66
2022/10/10 05:18:01;;;;;;;14.57;8.43;;;6.10;99.90;;;4.91;100.00;97020.59;6206756;23;20035;-66
2022/10/10 05:20:30;;;;;;;12.18;7.07;;;6.20;99.90;;;5.05;100.00;97021.03;6206283;23;20025;-66
2022/10/10 05:22:57;;;;;;;9.88;6.32;;;6.20;99.90;;;5.22;100.00;97015.34;6204471;23;20029;-66
2022/10/10 05:25:24;;;;;;;12.38;6.28;;;6.40;99.90;;;5.52;100.00;96999.84;6206242;23;20372;-66
2022/10/10 05:27:51;;;;;;;12.20;6.10;;;6.50;99.90;;;5.47;100.00;97010.28;6205874;23;20040;-65
2022/10/10 05:30:18;;;;;;;12.73;7.13;;;6.70;99.90;;;5.50;100.00;97009.38;6207272;23;20021;-66
2022/10/10 05:32:45;;;;;;;11.25;7.15;;;6.70;99.90;;;5.45;100.00;97012.06;6206354;23;20388;-66
2022/10/10 05:35:12;;;;;;;11.23;6.45;;;6.80;99.90;;;5.60;100.00;97001.31;6205330;23;20017;-66
2022/10/10 05:37:39;;;;;;;11.50;7.43;;;6.80;99.90;;;5.50;100.00;97010.22;6206483;23;20348;-66
2022/10/10 05:40:07;;;;;;;21.95;13.48;;;6.90;99.90;;;5.54;100.00;97005.81;6206523;23;20465;-66
2022/10/10 05:42:33;;;;;;;18.65;9.50;;;6.90;99.90;;;5.94;100.00;97001.94;6206261;23;20029;-66
2022/10/10 05:45:00;;;;;;;11.98;7.35;;;7.00;99.90;;;5.98;100.00;96998.41;6205948;23;20027;-67
2022/10/10 05:47:27;;;;;;;11.82;7.60;;;7.00;99.90;;;5.94;100.00;97005.38;6205132;23;20471;-67
2022/10/10 05:49:54;;;;;;;14.60;6.90;;;7.10;99.90;;;6.17;100.00;97002.03;6206463;23;20025;-66
2022/10/10 05:52:21;;;;;;;11.10;7.03;;;7.20;99.90;;;6.37;100.00;97000.53;6207470;23;20843;-66
2022/10/10 05:54:48;;;;;;;13.35;7.93;;;7.30;99.90;;;6.42;100.00;96998.63;6205535;23;20032;-66
2022/10/10 05:57:14;;;;;;;12.48;8.18;;;7.50;99.90;;;6.51;100.00;97000.03;6206952;23;20020;-67
2022/10/10 05:59:42;;;;;;;15.65;8.60;;;7.60;99.90;;;6.65;100.00;96993.47;6206732;23;20066;-67
2022/10/10 06:02:12;;;;;;;13.45;9.10;;;7.70;99.90;;;6.68;100.00;97003.69;6202521;23;20028;-65
2022/10/10 06:04:39;;;;;;;40.65;26.23;;;7.80;99.90;;;6.61;100.00;96999.63;6205924;23;20028;-66
2022/10/10 06:07:06;;;;;;;16.30;11.23;;;7.80;99.90;;;6.59;100.00;97009.19;6206227;23;20536;-66
2022/10/10 06:09:33;;;;;;;13.65;8.38;;;7.90;99.90;;;6.90;100.00;97001.16;6206835;23;20185;-67
2022/10/10 06:12:00;;;;;;;13.25;7.38;;;7.90;99.90;;;6.98;100.00;97006.03;6206607;23;20020;-67
2022/10/10 06:14:27;;;;;;;15.15;7.38;;;8.00;99.90;;;7.11;100.00;97006.41;6205033;23;20048;-67
2022/10/10 06:16:54;;;;;;;11.27;7.00;;;8.10;99.90;;;7.29;100.00;97017.75;6207443;23;20044;-67
2022/10/10 06:19:21;;;;;;;11.90;7.15;;;;;;;7.36;100.00;97026.94;6208679;23;20027;-67
2022/10/10 06:21:48;;;;;;;11.80;7.03;;;8.40;99.90;;;7.53;100.00;97019.41;6207453;23;20029;-66
2022/10/10 06:24:15;;;;;;;15.48;7.78;;;8.50;99.90;;;7.66;100.00;97014.59;6208738;23;20047;-66
2022/10/10 06:26:42;;;;;;;13.32;8.32;;;8.60;99.90;;;7.72;100.00;97024.66;6207910;23;20024;-66
2022/10/10 06:29:09;;;;;;;11.95;8.23;;;8.70;99.90;;;7.72;100.00;97022.09;6207356;23;20025;-66
2022/10/10 06:31:38;;;;;;;16.20;9.05;;;8.80;99.90;;;7.80;100.00;97028.69;6207437;23;20092;-67
2022/10/10 06:34:05;;;;;;;13.02;8.30;;;8.80;99.90;;;7.94;100.00;97031.56;6208178;23;20078;-66
2022/10/10 06:36:33;;;;;;;12.68;8.25;;;8.90;99.90;;;8.02;100.00;97026.91;6208603;23;20030;-65
2022/10/10 06:39:00;;;;;;;16.13;8.60;;;9.00;99.90;;;8.10;100.00;97024.88;6208244;23;20028;-66
2022/10/10 06:41:27;;;;;;;15.32;8.13;;;9.10;99.90;;;8.22;100.00;97027.84;6208295;23;20025;-66
2022/10/10 06:43:54;;;;;;;14.85;8.05;;;9.20;99.90;;;8.34;100.00;97032.47;6209095;23;20102;-67
2022/10/10 06:46:21;;;;;;;13.35;8.35;;;9.30;99.90;;;8.38;100.00;97019.34;6209030;23;20047;-66
2022/10/10 06:48:48;;;;;;;14.05;8.60;;;9.40;99.90;;;8.54;100.00;97031.66;6208956;23;20097;-67
2022/10/10 06:51:16;;;;;;;15.90;8.75;;;9.50;99.90;;;8.70;100.00;97024.09;6208960;23;20124;-66
2022/10/10 06:53:44;;;;;;;12.00;8.35;;;9.70;99.90;;;8.94;100.00;97020.41;6206464;23;20063;-66
2022/10/10 06:56:19;;;;;;;15.10;8.63;;;9.90;99.90;;;9.09;100.00;97018.88;6208977;23;20074;-66
2022/10/10 06:58:53;;;;;;;15.05;7.57;;;10.10;99.90;;;9.54;100.00;97012.47;6205545;23;20047;-65
2022/10/10 07:01:22;;;;;;;13.23;8.15;;;10.30;99.90;;;9.95;100.00;97006.22;6205283;23;20099;-66
2022/10/10 07:03:49;;;;;;;14.60;7.43;;;10.60;99.90;;;10.24;100.00;96999.53;6208552;23;20055;-67
2022/10/10 07:06:17;;;;;;;14.48;7.22;;;10.80;99.90;;;10.65;100.00;96999.22;6208410;23;20029;-66
2022/10/10 07:08:44;;;;;;;12.38;6.03;;;11.20;99.90;;;10.92;100.00;96989.13;6206687;23;20024;-67
2022/10/10 07:11:11;;;;;;;12.50;6.22;;;11.50;99.90;;;11.07;100.00;96995.28;6208712;23;20024;-67
2022/10/10 07:13:38;;;;;;;13.32;6.53;;;11.80;99.90;;;11.13;100.00;97000.16;6204862;23;20032;-66
2022/10/10 07:16:05;;;;;;;10.40;5.65;;;12.00;99.90;;;11.20;100.00;97004.09;6208238;23;20024;-66
2022/10/10 07:18:34;;;;;;;13.20;5.18;;;12.00;99.90;;;11.34;100.00;96997.31;6205132;23;20070;-67
2022/10/10 07:21:01;;;;;;;8.23;4.53;;;12.20;99.90;;;11.43;100.00;96994.19;6207792;23;20024;-65
2022/10/10 07:23:30;;;;;;;9.75;5.05;;;12.30;99.90;;;11.47;100.00;96995.69;6207203;23;20483;-67
2022/10/10 07:26:03;;;;;;;14.55;7.50;;;12.40;99.90;;;11.58;100.00;96997.69;6206090;23;20245;-65
2022/10/10 07:28:30;;;;;;;;;;;12.60;99.90;;;11.62;100.00;97000.03;6204739;23;20070;-67
2022/10/10 07:31:03;;;;;;;16.70;7.43;;;12.70;99.90;;;11.80;100.00;96989.53;6206980;23;19920;-66
2022/10/10 07:33:46;;;;;;;14.00;7.18;;;12.80;99.90;;;11.84;100.00;96991.03;6202975;23;20020;-65
2022/10/10 07:36:17;;;;;;;10.88;6.25;;;12.90;99.90;;;11.86;100.00;97003.03;6208241;23;20027;-64
2022/10/10 07:38:48;;;;;;;8.98;5.38;;;13.00;99.90;;;12.02;100.00;96995.22;6207984;23;20028;-67
2022/10/10 07:41:15;;;;;;;13.73;6.03;;;13.10;99.90;;;12.07;100.00;96994.94;6206792;23;20025;-65
2022/10/10 07:43:42;;;;;;;12.40;5.50;;;13.20;99.90;;;12.25;100.00;96986.06;6206814;23;20066;-66
2022/10/10 07:46:18;;;;;;;11.82;5.53;;;13.30;99.90;;;12.52;100.00;96981.00;6207034;23;20305;-67
2022/10/10 07:48:47;;;;;;;8.93;4.97;;;13.60;99.90;;;12.91;100.00;96976.06;6204350;23;20020;-66
2022/10/10 07:51:15;;;;;;;8.25;3.63;;;13.80;99.90;;;13.22;100.00;96979.34;6207401;23;20027;-66
2022/10/10 07:53:43;;;;;;;8.57;3.92;;;14.20;99.90;;;13.10;100.00;96978.34;6206666;23;20498;-66
2022/10/10 07:56:10;;;;;;;9.75;4.50;;;14.40;99.90;;;13.03;100.00;96969.25;6205671;23;20132;-66
2022/10/10 07:58:37;;;;;;;11.88;4.93;;;14.20;99.90;;;12.88;100.00;96984.03;6205432;23;20313;-66
2022/10/10 08:01:08;;;;;;;10.13;4.80;;;14.10;99.90;;;12.67;100.00;96989.63;6206768;23;20028;-66
2022/10/10 08:03:35;;;;;;;12.27;5.18;;;14.00;99.90;;;12.71;100.00;96980.72;6205534;23;20029;-66
2022/10/10 08:06:09;;;;;;;9.75;4.70;;;13.90;99.90;;;12.67;100.00;96996.63;6206097;23;20027;-64
2022/10/10 08:08:37;;;;;;;11.60;5.70;;;13.90;99.90;;;12.64;100.00;97008.06;6203549;23;20403;-66
2022/10/10 08:11:17;;;;;;;12.25;5.82;;;13.90;99.90;;;12.60;100.00;97013.53;6206683;23;20102;-65
2022/10/10 08:13:44;;;;;;;12.80;5.32;;;13.80;99.90;;;12.65;100.00;97008.88;6205706;23;20478;-67
2022/10/10 08:16:11;;;;;;;11.63;5.95;;;13.80;99.90;;;12.45;100.00;97021.34;6205657;23;20095;-66
2022/10/10 08:18:38;;;;;;;13.55;5.80;;;13.80;99.90;;;12.67;100.00;97010.47;6207378;23;20036;-66
2022/10/10 08:21:09;;;;;;;10.38;6.50;;;13.80;99.90;;;12.50;100.00;97021.06;6206639;23;20024;-65
2022/10/10 08:23:36;;;;;;;13.55;6.05;;;13.70;99.90;;;12.63;100.00;96998.56;6205895;23;20031;-66
2022/10/10 08:26:07;;;;;;;14.63;7.28;;;13.70;99.90;;;12.43;100.00;97009.31;6203632;23;20029;-66
2022/10/10 08:28:35;;;;;;;10.65;7.03;;;13.80;99.90;;;12.44;100.00;97013.59;6204654;23;20028;-66
2022/10/10 08:31:07;;;;;;;13.32;7.75;;;13.90;99.90;;;12.29;100.00;97021.41;6205419;23;20024;-67
2022/10/10 08:33:35;;;;;;;12.87;7.50;;;13.90;99.90;;;12.32;100.00;97015.16;6199492;23;20031;-66
2022/10/10 08:36:15;;;;;;;14.82;7.82;;;13.90;99.90;;;12.50;100.00;97010.66;6212697;23;20095;-67
2022/10/10 08:38:42;;;;;;;16.98;8.07;;;13.70;99.90;;;12.53;100.00;97008.69;6200561;23;20025;-66
2022/10/10 08:41:38;;;;;;;14.23;8.30;;;13.70;99.90;;;12.40;100.00;97012.09;6205572;23;20036;-66
2022/10/10 08:44:36;;;;;;;15.32;9.15;;;13.70;99.90;;;12.29;100.00;97020.53;6202944;23;20119;-65
2022/10/10 08:47:11;;;;;;;16.88;8.57;;;13.80;99.90;;;12.41;100.00;97030.25;6202506;23;20035;-65
2022/10/10 08:49:49;;;;;;;15.35;10.02;;;13.90;99.90;;;12.59;100.00;97012.69;6205439;23;20055;-66
2022/10/10 08:52:55;;;;;;;15.57;9.70;;;14.00;99.90;;;12.71;100.00;97017.16;6206265;23;20016;-66
2022/10/10 08:55:40;;;;;;;13.73;9.13;;;14.10;99.90;;;12.82;100.00;97013.91;6205775;23;20016;-66
2022/10/10 08:58:36;;;;;;;13.50;7.70;;;14.30;99.90;;;12.90;100.00;97010.84;6202432;23;20024;-66
2022/10/10 09:01:35;;;;;;;14.73;8.40;;;14.30;99.90;;;12.94;100.00;97001.91;6202983;23;20663;-67
2022/10/10 09:04:22;;;;;;;14.57;8.30;;;14.30;99.90;;;13.13;100.00;96983.38;6204092;23;20024;-66
2022/10/10 09:07:07;;;;;;;13.45;7.03;;;14.10;99.90;;;13.22;100.00;96987.16;6204958;23;20024;-66
2022/10/10 09:09:59;;;;;;;11.38;6.47;;;14.10;99.90;;;13.24;100.00;96978.31;6205247;23;20021;-66
2022/10/10 09:12:49;;;;;;;16.20;7.60;;;14.20;99.90;;;13.29;100.00;96989.31;6205330;23;20116;-66
2022/10/10 09:15:30;;;;;;;10.75;5.75;;;14.30;99.90;;;13.58;100.00;96968.38;6203969;23;20460;-66
2022/10/10 09:18:09;;;;;;;10.25;6.13;;;14.40;99.90;;;13.60;100.00;96979.56;6202995;23;20020;-66
2022/10/10 09:21:11;;;;;;;13.50;5.90;;;14.60;99.90;;;13.70;100.00;96975.41;6204712;23;20020;-67
2022/10/10 09:24:18;;;;;;;10.48;5.90;;;14.70;99.90;;;13.86;100.00;96975.25;6203357;23;20028;-66
2022/10/10 09:27:14;;;;;;;11.70;5.43;;;14.90;99.90;;;14.02;100.00;96975.09;6204455;23;20028;-66
2022/10/10 09:29:57;;;;;;;11.05;5.95;;;15.00;99.90;;;13.93;100.00;96971.31;6203012;23;20021;-66
2022/10/10 09:32:41;;;;;;;;;;;15.00;99.90;;;13.96;100.00;96981.56;6204144;23;20585;-65
2022/10/10 09:35:25;;;;;;;11.45;5.80;;;15.00;99.90;;;14.06;100.00;96980.94;6202213;23;20419;-68
2022/10/10 09:38:04;;;;;;;13.15;5.13;;;15.00;99.90;;;14.21;100.00;96985.16;6204681;23;20032;-66
2022/10/10 09:40:43;;;;;;;9.68;5.25;;;15.10;99.90;;;14.31;100.00;96972.31;6203154;23;20028;-68
2022/10/10 09:43:18;;;;;;;14.48;5.10;;;15.30;99.90;;;14.39;100.00;96973.47;6201966;23;20028;-68
2022/10/10 09:45:55;;;;;;;11.95;4.20;;;15.50;99.90;;;14.79;100.00;96972.56;6205147;23;20031;-68
2022/10/10 09:48:36;;;;;;;7.72;4.40;;;15.50;99.90;;;14.94;100.00;96981.09;6203077;23;20507;-67
2022/10/10 09:51:07;;;;;;;11.88;4.85;;;15.70;99.90;;;15.05;100.00;96999.47;6204002;23;20031;-68
2022/10/10 09:53:34;;;;;;;14.87;4.37;;;15.70;99.90;;;14.91;100.00;96999.59;6204780;23;20016;-67
2022/10/10 09:56:04;;;;;;;11.05;5.32;;;15.80;99.90;;;14.78;100.00;97002.22;6205788;23;20452;-68
2022/10/10 09:58:43;;;;;;;12.07;4.45;;;15.90;99.90;;;14.64;100.00;97001.41;6204180;23;20040;-68
2022/10/10 10:01:26;;;;;;;7.28;4.25;;;15.90;99.90;;;14.81;100.00;97004.63;6205993;23;20024;-68
2022/10/10 10:04:15;;;;;;;14.30;4.80;;;15.90;99.90;;;15.05;100.00;96999.47;6205823;23;20075;-67
2022/10/10 10:07:26;;;;;;;14.95;4.93;;;16.00;99.90;;;15.11;100.00;97004.28;6203016;23;20028;-67
2022/10/10 10:09:57;;;;;;;12.93;4.72;;;16.10;99.90;;;15.16;100.00;97007.41;6204959;23;20365;-68
2022/10/10 10:12:29;;;;;;;10.05;5.03;;;16.20;99.90;;;15.31;100.00;97007.28;6206485;23;20020;-68
2022/10/10 10:15:05;;;;;;;12.53;4.53;;;16.30;99.90;;;15.27;100.00;97020.53;6205042;23;20043;-68
2022/10/10 10:17:32;;;;;;;8.52;4.40;;;16.30;99.90;;;15.28;100.00;97031.88;6204991;23;20273;-68
2022/10/10 10:19:59;;;;;;;10.23;4.43;;;16.40;99.90;;;15.17;100.00;97031.78;6205044;23;20024;-67
2022/10/10 10:22:37;;;;;;;10.43;4.43;;;16.50;99.90;;;15.36;100.00;97040.00;6207077;23;20024;-67
2022/10/10 10:25:31;;;;;;;9.27;4.25;;;16.50;99.90;;;15.45;100.00;97041.13;6203932;23;20121;-68
2022/10/10 10:28:11;;;;;;;13.85;4.78;;;16.60;99.90;;;15.56;100.00;97040.38;6206291;23;20029;-68
2022/10/10 10:30:41;;;;;;;6.00;3.78;;;16.70;99.90;;;15.86;100.00;97042.59;6206933;23;20039;-68
2022/10/10 10:33:48;;;;;;;11.40;4.57;;;16.80;99.90;;;15.95;100.00;97041.09;6205128;23;20040;-68
2022/10/10 10:36:30;;;;;;;11.82;3.88;;;;;;;15.95;100.00;97054.19;6208152;23;20036;-68
2022/10/10 10:39:42;;;;;;;10.18;3.55;;;17.00;99.90;;;16.01;100.00;97049.34;6206139;23;20031;-68